createdAt,value
2023-03-12T00:01:45.040Z,69.68
2023-03-12T00:04:16.260Z,69.86
2023-03-12T00:06:46.728Z,69.90
2023-03-12T00:09:17.111Z,69.75
2023-03-12T00:11:47.603Z,69.73
2023-03-12T00:14:18.079Z,69.85
2023-03-12T00:16:48.548Z,69.30
2023-03-12T00:19:21.401Z,69.29
2023-03-12T00:22:02.096Z,69.56
2023-03-12T00:24:35.463Z,69.17
2023-03-12T00:27:10.372Z,69.34
2023-03-12T00:29:41.965Z,69.65
2023-03-12T00:32:15.088Z,69.55
2023-03-12T00:34:45.372Z,69.29
2023-03-12T00:37:16.775Z,69.32
2023-03-12T00:39:47.044Z,69.34
2023-03-12T00:42:18.039Z,69.55
2023-03-12T00:44:48.436Z,69.47
2023-03-12T00:47:20.546Z,69.51
2023-03-12T00:49:51.709Z,69.46
2023-03-12T00:52:24.487Z,69.30
2023-03-12T00:54:55.029Z,69.49
2023-03-12T00:57:25.437Z,69.45
2023-03-12T00:59:57.652Z,69.44
2023-03-12T01:02:29.978Z,69.25
2023-03-12T01:05:00.236Z,69.25
2023-03-12T01:07:32.410Z,69.29
2023-03-12T01:10:02.929Z,69.45
2023-03-12T01:12:33.843Z,68.94
2023-03-12T01:15:04.564Z,69.14
2023-03-12T01:17:35.202Z,69.29
2023-03-12T01:20:07.329Z,69.30
2023-03-12T01:22:38.758Z,69.48
2023-03-12T01:25:08.677Z,69.65
2023-03-12T01:27:40.759Z,69.03
2023-03-12T01:30:11.901Z,69.15
2023-03-12T01:32:42.268Z,69.19
2023-03-12T01:35:16.032Z,69.05
2023-03-12T01:37:46.268Z,68.71
2023-03-12T01:40:23.371Z,68.98
2023-03-12T01:43:02.773Z,69.03
2023-03-12T01:46:10.534Z,69.03
2023-03-12T01:48:48.400Z,69.20
2023-03-12T01:51:21.787Z,69.47
2023-03-12T01:53:58.648Z,69.17
2023-03-12T01:56:33.143Z,69.28
2023-03-12T01:59:08.933Z,68.94
2023-03-12T02:01:44.295Z,68.99
2023-03-12T02:04:18.786Z,68.86
2023-03-12T02:07:00.438Z,68.83
2023-03-12T02:09:32.295Z,68.83
2023-03-12T02:12:05.976Z,68.56
2023-03-12T02:14:37.149Z,68.64
2023-03-12T02:17:08.730Z,68.88
2023-03-12T02:19:54.031Z,68.59
2023-03-12T02:22:24.863Z,68.55
2023-03-12T02:25:17.636Z,68.88
2023-03-12T02:27:49.006Z,68.49
2023-03-12T02:30:19.087Z,68.31
2023-03-12T02:32:51.237Z,68.68
2023-03-12T02:35:21.561Z,68.46
2023-03-12T02:37:57.618Z,68.20
2023-03-12T02:40:27.757Z,68.32
2023-03-12T02:42:59.164Z,68.02
2023-03-12T02:45:32.119Z,67.93
2023-03-12T02:48:07.761Z,67.72
2023-03-12T02:50:38.366Z,68.22
2023-03-12T02:53:08.635Z,68.10
2023-03-12T02:55:38.950Z,68.42
2023-03-12T02:58:09.525Z,68.31
2023-03-12T03:00:40.285Z,68.34
2023-03-12T03:03:10.731Z,68.21
2023-03-12T03:05:41.162Z,68.39
2023-03-12T03:08:12.294Z,68.20
2023-03-12T03:10:48.692Z,68.31
2023-03-12T03:13:19.422Z,68.17
2023-03-12T03:15:51.967Z,68.14
2023-03-12T03:18:22.207Z,68.15
2023-03-12T03:21:11.210Z,68.08
2023-03-12T03:23:42.928Z,68.20
2023-03-12T03:26:13.911Z,68.08
2023-03-12T03:31:12.118Z,67.82
2023-03-12T03:33:44.152Z,67.72
2023-03-12T03:36:19.153Z,67.62
2023-03-12T03:39:04.799Z,67.52
2023-03-12T03:41:37.815Z,67.74
2023-03-12T03:44:10.114Z,67.59
2023-03-12T03:46:44.787Z,67.39
2023-03-12T03:49:19.534Z,67.39
2023-03-12T03:51:54.544Z,67.52
2023-03-12T03:54:34.267Z,67.72
2023-03-12T03:57:05.734Z,67.52
2023-03-12T03:59:36.034Z,67.77
2023-03-12T04:02:09.230Z,67.62
2023-03-12T04:04:44.369Z,66.94
2023-03-12T04:07:18.085Z,67.27
2023-03-12T04:09:50.094Z,67.22
2023-03-12T04:12:20.613Z,66.84
2023-03-12T04:14:53.997Z,66.18
2023-03-12T04:17:25.012Z,66.56
2023-03-12T04:19:55.521Z,66.54
2023-03-12T04:22:25.965Z,66.67
2023-03-12T04:24:56.324Z,66.52
2023-03-12T04:27:27.469Z,63.91
2023-03-12T04:29:59.742Z,64.09
2023-03-12T04:32:30.231Z,64.72
2023-03-12T04:35:02.073Z,64.78
2023-03-12T04:37:39.307Z,64.98
2023-03-12T04:40:14.921Z,64.26
2023-03-12T04:42:45.366Z,64.15
2023-03-12T04:45:20.129Z,63.97
2023-03-12T04:47:50.839Z,64.93
2023-03-12T04:50:21.452Z,64.85
2023-03-12T04:52:54.288Z,63.18
2023-03-12T04:55:29.111Z,64.04
2023-03-12T04:57:59.501Z,64.77
2023-03-12T05:00:29.863Z,64.57
2023-03-12T05:03:00.356Z,64.67
2023-03-12T05:05:30.751Z,64.69
2023-03-12T05:08:04.470Z,64.53
2023-03-12T05:10:36.771Z,63.19
2023-03-12T05:13:10.376Z,63.89
2023-03-12T05:15:40.785Z,64.71
2023-03-12T05:18:13.271Z,64.79
2023-03-12T05:20:46.001Z,64.94
2023-03-12T05:23:16.521Z,64.86
2023-03-12T05:25:49.054Z,64.88
2023-03-12T05:28:23.164Z,65.24
2023-03-12T05:30:55.279Z,64.97
2023-03-12T05:33:30.937Z,64.74
2023-03-12T05:36:06.647Z,64.62
2023-03-12T05:38:37.881Z,65.03
2023-03-12T05:41:10.892Z,64.70
2023-03-12T05:43:43.222Z,64.50
2023-03-12T05:46:14.057Z,64.35
2023-03-12T05:48:46.732Z,63.73
2023-03-12T05:51:19.179Z,64.01
2023-03-12T05:53:51.736Z,64.03
2023-03-12T05:56:45.725Z,63.09
2023-03-12T05:59:17.413Z,62.89
2023-03-12T06:02:02.197Z,62.45
2023-03-12T06:04:34.319Z,63.22
2023-03-12T06:07:04.529Z,62.83
2023-03-12T06:09:37.861Z,62.10
2023-03-12T06:12:09.100Z,62.26
2023-03-12T06:14:39.921Z,62.39
2023-03-12T06:17:10.457Z,62.33
2023-03-12T06:19:42.890Z,62.36
2023-03-12T06:22:13.187Z,62.60
2023-03-12T06:24:45.443Z,62.85
2023-03-12T06:27:27.992Z,62.50
2023-03-12T06:29:58.201Z,62.63
2023-03-12T06:32:28.510Z,61.89
2023-03-12T06:35:01.347Z,61.54
2023-03-12T06:37:32.820Z,61.79
2023-03-12T06:40:03.249Z,61.54
2023-03-12T06:42:39.785Z,60.78
2023-03-12T06:45:15.411Z,61.82
2023-03-12T06:47:49.298Z,61.92
2023-03-12T06:50:21.839Z,61.75
2023-03-12T06:52:52.038Z,62.11
2023-03-12T06:55:25.420Z,62.17
2023-03-12T06:57:55.609Z,62.44
2023-03-12T07:00:31.302Z,62.68
2023-03-12T07:03:01.639Z,62.35
2023-03-12T07:05:32.252Z,62.40
2023-03-12T07:08:03.901Z,62.08
2023-03-12T07:10:39.546Z,61.76
2023-03-12T07:13:16.336Z,61.54
2023-03-12T07:18:46.413Z,61.76
2023-03-12T07:21:19.029Z,62.10
2023-03-12T07:23:52.427Z,62.15
2023-03-12T07:26:26.138Z,62.29
2023-03-12T07:28:59.505Z,61.31
2023-03-12T07:31:32.061Z,61.04
2023-03-12T07:34:02.820Z,61.54
2023-03-12T07:36:34.673Z,61.55
2023-03-12T07:39:05.095Z,60.78
2023-03-12T07:41:35.449Z,60.51
2023-03-12T07:44:05.737Z,60.32
2023-03-12T07:46:37.930Z,60.05
2023-03-12T07:49:11.266Z,59.98
2023-03-12T07:51:41.555Z,60.20
2023-03-12T07:54:14.312Z,60.68
2023-03-12T07:56:45.037Z,60.95
2023-03-12T07:59:15.567Z,60.92
2023-03-12T08:01:46.488Z,60.76
2023-03-12T08:04:17.610Z,61.11
2023-03-12T08:06:48.095Z,61.22
2023-03-12T08:09:21.676Z,60.98
2023-03-12T08:12:01.370Z,60.88
2023-03-12T08:14:33.992Z,60.68
2023-03-12T08:17:04.543Z,60.54
2023-03-12T08:19:37.939Z,60.93
2023-03-12T08:22:09.331Z,60.85
2023-03-12T08:24:41.214Z,60.90
2023-03-12T08:27:13.346Z,60.80
2023-03-12T08:29:46.343Z,60.88
2023-03-12T08:32:18.765Z,60.79
2023-03-12T08:34:49.222Z,60.10
2023-03-12T08:37:23.229Z,59.77
2023-03-12T08:39:53.487Z,60.35
2023-03-12T08:42:26.930Z,60.79
2023-03-12T08:45:00.040Z,60.52
2023-03-12T08:47:31.638Z,60.44
2023-03-12T08:50:02.258Z,60.72
2023-03-12T08:52:34.367Z,60.55
2023-03-12T08:55:06.458Z,60.23
2023-03-12T08:57:36.991Z,60.63
2023-03-12T09:00:13.419Z,60.77
2023-03-12T09:02:46.836Z,60.76
2023-03-12T09:05:17.236Z,60.57
2023-03-12T09:07:47.778Z,60.56
2023-03-12T09:10:20.113Z,60.73
2023-03-12T09:12:50.297Z,60.53
2023-03-12T09:15:21.155Z,60.59
2023-03-12T09:17:51.460Z,60.80
2023-03-12T09:20:22.232Z,60.96
2023-03-12T09:22:57.408Z,61.04
2023-03-12T09:25:28.012Z,61.09
2023-03-12T09:28:00.028Z,60.93
2023-03-12T09:30:32.581Z,61.33
2023-03-12T09:33:07.571Z,61.36
2023-03-12T09:35:41.559Z,62.09
2023-03-12T09:38:21.574Z,62.48
2023-03-12T09:40:52.089Z,62.34
2023-03-12T09:43:34.771Z,62.32
2023-03-12T09:46:06.882Z,62.33
2023-03-12T09:48:47.529Z,62.14
2023-03-12T09:51:24.700Z,62.19
2023-03-12T09:54:02.426Z,61.95
2023-03-12T09:56:38.961Z,62.15
2023-03-12T09:59:15.254Z,62.03
2023-03-12T10:01:54.962Z,62.11
2023-03-12T10:04:59.912Z,61.79
2023-03-12T10:07:50.309Z,62.21
2023-03-12T10:10:42.640Z,62.27
2023-03-12T10:13:49.926Z,62.23
2023-03-12T10:16:43.520Z,62.23
2023-03-12T10:19:43.003Z,62.15
2023-03-12T10:23:09.177Z,62.49
2023-03-12T10:26:11.182Z,62.34
2023-03-12T10:29:02.241Z,62.39
2023-03-12T10:31:51.465Z,62.70
2023-03-12T10:34:28.865Z,62.84
2023-03-12T10:37:05.615Z,62.97
2023-03-12T10:39:35.921Z,63.10
2023-03-12T10:42:25.633Z,63.28
2023-03-12T10:45:39.097Z,63.51
2023-03-12T10:48:12.286Z,63.22
2023-03-12T10:50:43.938Z,63.18
2023-03-12T10:53:24.681Z,63.53
2023-03-12T10:56:14.178Z,63.70
2023-03-12T10:58:49.108Z,63.71
2023-03-12T11:01:22.767Z,63.64
2023-03-12T11:03:54.267Z,63.62
2023-03-12T11:06:28.513Z,63.65
2023-03-12T11:09:16.673Z,63.78
2023-03-12T11:11:51.951Z,63.78
2023-03-12T11:14:26.869Z,63.86
2023-03-12T11:16:58.185Z,63.97
2023-03-12T11:19:34.651Z,64.17
2023-03-12T11:22:10.071Z,63.91
2023-03-12T11:24:58.750Z,64.05
2023-03-12T11:27:43.751Z,64.36
2023-03-12T11:30:22.758Z,64.35
2023-03-12T11:32:53.801Z,64.62
2023-03-12T11:35:33.986Z,64.63
2023-03-12T11:38:09.875Z,64.80
2023-03-12T11:41:07.791Z,64.94
2023-03-12T11:43:49.533Z,65.43
2023-03-12T11:46:19.580Z,65.45
2023-03-12T11:49:02.183Z,65.54
2023-03-12T11:51:38.701Z,65.63
2023-03-12T11:54:30.446Z,65.35
2023-03-12T11:57:25.140Z,65.53
2023-03-12T12:00:25.084Z,65.50
2023-03-12T12:03:19.268Z,65.63
2023-03-12T12:05:59.951Z,65.34
2023-03-12T12:08:50.171Z,65.54
2023-03-12T12:11:30.246Z,65.77
2023-03-12T12:14:09.145Z,65.80
2023-03-12T12:17:00.366Z,65.87
2023-03-12T12:19:55.808Z,66.40
2023-03-12T12:22:41.920Z,66.34
2023-03-12T12:25:26.299Z,66.16
2023-03-12T12:28:20.560Z,66.24
2023-03-12T12:31:07.737Z,66.51
2023-03-12T12:34:19.440Z,67.06
2023-03-12T12:36:53.853Z,66.69
2023-03-12T12:39:40.433Z,66.86
2023-03-12T12:42:17.772Z,66.62
2023-03-12T12:44:53.550Z,66.86
2023-03-12T12:47:39.994Z,67.10
2023-03-12T12:50:16.582Z,66.66
2023-03-12T12:52:48.681Z,67.06
2023-03-12T12:55:29.315Z,66.99
2023-03-12T12:58:17.492Z,67.34
2023-03-12T13:00:52.424Z,67.26
2023-03-12T13:03:25.278Z,68.14
2023-03-12T13:05:57.606Z,68.10
2023-03-12T13:08:46.447Z,68.22
2023-03-12T13:11:20.811Z,68.17
2023-03-12T13:14:15.612Z,68.06
2023-03-12T13:16:48.762Z,68.03
2023-03-12T13:19:18.784Z,67.80
2023-03-12T13:22:25.138Z,67.84
2023-03-12T13:25:13.792Z,67.55
2023-03-12T13:27:47.256Z,67.58
2023-03-12T13:30:35.393Z,67.51
2023-03-12T13:33:14.921Z,67.50
2023-03-12T13:35:50.002Z,67.20
2023-03-12T13:38:39.528Z,67.45
2023-03-12T13:41:10.624Z,67.14
2023-03-12T13:43:49.969Z,67.42
2023-03-12T13:46:41.631Z,67.20
2023-03-12T13:49:18.157Z,67.32
2023-03-12T13:51:57.945Z,67.68
2023-03-12T13:54:36.090Z,67.50
2023-03-12T13:57:14.212Z,67.38
2023-03-12T13:59:48.898Z,67.68
2023-03-12T14:02:34.707Z,67.51
2023-03-12T14:05:13.059Z,67.57
2023-03-12T14:08:09.206Z,67.80
2023-03-12T14:10:47.115Z,68.05
2023-03-12T14:14:06.499Z,68.10
2023-03-12T14:16:41.701Z,67.85
2023-03-12T14:19:17.207Z,67.95
2023-03-12T14:21:50.063Z,68.27
2023-03-12T14:24:37.784Z,68.13
2023-03-12T14:27:14.283Z,68.06
2023-03-12T14:29:49.345Z,67.90
2023-03-12T14:32:36.897Z,67.83
2023-03-12T14:36:45.273Z,67.82
2023-03-12T14:39:59.928Z,68.01
2023-03-12T14:42:36.476Z,67.77
2023-03-12T14:45:17.438Z,67.80
2023-03-12T14:47:56.025Z,67.68
2023-03-12T14:50:39.932Z,67.63
2023-03-12T14:53:16.111Z,67.45
2023-03-12T14:55:46.406Z,67.64
2023-03-12T14:58:22.854Z,67.67
2023-03-12T15:01:09.603Z,67.66
2023-03-12T15:03:48.499Z,67.90
2023-03-12T15:06:35.223Z,67.93
2023-03-12T15:09:11.608Z,68.43
2023-03-12T15:11:43.090Z,68.20
2023-03-12T15:14:18.725Z,68.19
2023-03-12T15:16:49.157Z,68.30
2023-03-12T15:19:25.852Z,68.49
2023-03-12T15:21:56.826Z,68.35
2023-03-12T15:24:28.038Z,68.54
2023-03-12T15:26:58.255Z,68.60
2023-03-12T15:29:30.420Z,68.59
2023-03-12T15:32:02.567Z,68.80
2023-03-12T15:34:39.845Z,68.86
2023-03-12T15:37:35.091Z,68.95
2023-03-12T15:40:11.238Z,69.07
2023-03-12T15:42:46.223Z,69.18
2023-03-12T15:45:43.046Z,69.04
2023-03-12T15:48:36.389Z,69.21
2023-03-12T15:51:18.310Z,69.03
2023-03-12T15:53:48.687Z,68.97
2023-03-12T15:56:21.340Z,68.86
2023-03-12T15:59:05.440Z,68.94
2023-03-12T16:01:51.447Z,68.89
2023-03-12T16:04:23.132Z,69.13
2023-03-12T16:06:58.206Z,68.93
2023-03-12T16:09:31.905Z,68.81
2023-03-12T16:12:02.339Z,68.90
2023-03-12T16:14:36.864Z,68.72
2023-03-12T16:17:08.704Z,68.79
2023-03-12T16:19:39.031Z,68.87
2023-03-12T16:22:09.577Z,68.65
2023-03-12T16:24:42.765Z,68.62
2023-03-12T16:27:23.698Z,68.77
2023-03-12T16:30:02.185Z,68.81
2023-03-12T16:32:37.245Z,68.54
2023-03-12T16:35:21.193Z,68.99
2023-03-12T16:37:53.748Z,68.90
2023-03-12T16:40:33.450Z,68.87
2023-03-12T16:43:08.188Z,68.95
2023-03-12T16:45:39.878Z,68.73
2023-03-12T16:48:19.416Z,68.99
2023-03-12T16:50:55.708Z,68.77
2023-03-12T16:53:37.867Z,68.99
2023-03-12T16:56:09.309Z,69.47
2023-03-12T16:58:39.615Z,69.72
2023-03-12T17:01:15.806Z,70.98
2023-03-12T17:03:50.519Z,71.56
2023-03-12T17:06:35.740Z,71.75
2023-03-12T17:09:12.996Z,72.46
2023-03-12T17:11:43.548Z,72.87
2023-03-12T17:14:24.399Z,73.32
2023-03-12T17:16:56.239Z,73.72
2023-03-12T17:19:26.666Z,73.57
2023-03-12T17:21:59.897Z,73.70
2023-03-12T17:24:30.665Z,73.56
2023-03-12T17:27:03.197Z,73.72
2023-03-12T17:29:36.376Z,74.18
2023-03-12T17:32:06.707Z,74.09
2023-03-12T17:34:37.179Z,73.96
2023-03-12T17:37:07.709Z,73.80
2023-03-12T17:39:38.657Z,73.75
2023-03-12T17:42:09.072Z,73.56
2023-03-12T17:44:45.683Z,73.36
2023-03-12T17:47:18.800Z,73.35
2023-03-12T17:49:51.937Z,73.41
2023-03-12T17:52:22.353Z,73.58
2023-03-12T17:54:52.431Z,73.69
2023-03-12T17:57:22.418Z,73.55
2023-03-12T17:59:54.301Z,73.32
2023-03-12T18:02:25.046Z,73.27
2023-03-12T18:04:55.260Z,73.02
2023-03-12T18:07:25.525Z,73.02
2023-03-12T18:09:55.589Z,72.73
2023-03-12T18:12:25.670Z,72.82
2023-03-12T18:14:56.998Z,72.70
2023-03-12T18:17:27.307Z,72.65
2023-03-12T18:19:57.376Z,72.70
2023-03-12T18:22:28.699Z,72.43
2023-03-12T18:24:58.873Z,72.34
2023-03-12T18:27:28.892Z,72.37
2023-03-12T18:29:58.912Z,72.53
2023-03-12T18:32:28.912Z,72.44
2023-03-12T18:35:00.002Z,72.25
2023-03-12T18:37:30.391Z,72.36
2023-03-12T18:40:00.906Z,72.12
2023-03-12T18:42:31.076Z,71.83
2023-03-12T18:45:01.301Z,72.10
2023-03-12T18:47:31.597Z,72.26
2023-03-12T18:50:01.818Z,72.09
2023-03-12T18:53:02.601Z,72.10
2023-03-12T18:55:34.496Z,72.01
2023-03-12T18:58:04.411Z,72.17
2023-03-12T19:00:34.542Z,72.28
2023-03-12T19:03:04.593Z,72.04
2023-03-12T19:05:34.821Z,71.97
2023-03-12T19:08:08.338Z,72.06
2023-03-12T19:10:38.958Z,72.20
2023-03-12T19:13:09.345Z,72.25
2023-03-12T19:15:41.400Z,72.12
2023-03-12T19:18:11.837Z,72.23
2023-03-12T19:20:41.840Z,72.09
2023-03-12T19:23:11.803Z,72.17
2023-03-12T19:25:41.750Z,72.33
2023-03-12T19:28:11.847Z,71.94
2023-03-12T19:30:41.785Z,72.03
2023-03-12T19:33:11.783Z,72.00
2023-03-12T19:35:43.173Z,71.95
2023-03-12T19:38:13.346Z,72.08
2023-03-12T19:40:43.243Z,71.89
2023-03-12T19:43:13.055Z,71.88
2023-03-12T19:45:42.979Z,71.76
2023-03-12T19:48:14.909Z,72.06
2023-03-12T19:50:47.167Z,71.99
2023-03-12T19:53:20.001Z,72.03
2023-03-12T19:55:53.244Z,71.83
2023-03-12T19:58:24.236Z,71.46
2023-03-12T20:00:54.420Z,71.60
2023-03-12T20:03:26.724Z,71.22
2023-03-12T20:05:56.880Z,71.46
2023-03-12T20:08:32.453Z,71.95
2023-03-12T20:11:11.771Z,72.21
2023-03-12T20:13:41.736Z,71.84
2023-03-12T20:16:13.794Z,71.49
2023-03-12T20:18:44.279Z,71.89
2023-03-12T20:21:14.320Z,71.83
2023-03-12T20:23:44.128Z,71.84
2023-03-12T20:26:14.187Z,71.44
2023-03-12T20:28:44.594Z,71.62
2023-03-12T20:31:17.896Z,71.53
2023-03-12T20:33:51.240Z,71.61
2023-03-12T20:36:21.381Z,71.60
2023-03-12T20:38:51.977Z,71.33
2023-03-12T20:41:22.249Z,71.01
2023-03-12T20:43:57.022Z,70.93
2023-03-12T20:46:27.696Z,70.30
2023-03-12T20:48:57.871Z,70.25
2023-03-12T20:51:27.765Z,69.75
2023-03-12T20:53:58.282Z,69.96
2023-03-12T20:56:28.490Z,70.09
2023-03-12T20:58:59.373Z,70.05
2023-03-12T21:01:29.903Z,70.07
2023-03-12T21:06:47.191Z,70.20
2023-03-12T21:09:17.320Z,69.52
2023-03-12T21:11:51.756Z,69.11
2023-03-12T21:14:22.465Z,68.69
2023-03-12T21:16:52.658Z,68.84
2023-03-12T21:19:26.168Z,69.17
2023-03-12T21:21:56.151Z,69.84
2023-03-12T21:24:26.175Z,70.02
2023-03-12T21:26:56.182Z,69.87
2023-03-12T21:29:27.635Z,70.08
2023-03-12T21:32:00.020Z,69.57
2023-03-12T21:34:32.658Z,69.78
2023-03-12T21:37:02.893Z,69.28
2023-03-12T21:39:32.833Z,69.27
2023-03-12T21:42:02.952Z,68.79
2023-03-12T21:44:33.043Z,68.88
2023-03-12T21:47:03.307Z,68.25
2023-03-12T21:49:35.771Z,68.51
2023-03-12T21:52:07.385Z,68.07
2023-03-12T21:54:38.998Z,68.17
2023-03-12T21:57:09.128Z,68.21
2023-03-12T21:59:39.256Z,68.19
2023-03-12T22:02:09.882Z,67.75
2023-03-12T22:04:40.080Z,67.51
2023-03-12T22:07:10.848Z,67.19
2023-03-12T22:09:41.195Z,66.98
2023-03-12T22:12:11.681Z,66.93
2023-03-12T22:14:41.669Z,66.49
2023-03-12T22:17:11.564Z,66.93
2023-03-12T22:19:42.125Z,67.35
2023-03-12T22:22:12.421Z,66.85
2023-03-12T22:24:42.575Z,67.22
2023-03-12T22:27:12.473Z,67.27
2023-03-12T22:29:42.495Z,67.07
2023-03-12T22:32:12.431Z,66.85
2023-03-12T22:34:42.990Z,66.89
2023-03-12T22:37:13.039Z,67.09
2023-03-12T22:39:43.187Z,67.13
2023-03-12T22:42:14.576Z,67.20
2023-03-12T22:44:45.054Z,67.37
2023-03-12T22:47:16.605Z,67.50
2023-03-12T22:49:46.706Z,67.21
2023-03-12T22:52:16.617Z,67.55
2023-03-12T22:54:46.429Z,67.20
2023-03-12T22:58:06.177Z,67.31
2023-03-12T23:00:36.229Z,67.22
2023-03-12T23:03:06.169Z,67.50
2023-03-12T23:05:37.508Z,68.07
2023-03-12T23:08:07.263Z,68.44
2023-03-12T23:12:09.417Z,68.07
2023-03-12T23:14:39.674Z,67.87
2023-03-12T23:17:10.992Z,67.98
2023-03-12T23:19:40.993Z,67.82
2023-03-12T23:22:11.486Z,67.76
2023-03-12T23:24:41.570Z,67.62
2023-03-12T23:27:11.484Z,67.92
2023-03-12T23:29:42.391Z,67.36
2023-03-12T23:32:12.548Z,67.98
2023-03-12T23:34:43.581Z,67.71
2023-03-12T23:37:14.401Z,67.65
2023-03-12T23:39:54.117Z,67.38
2023-03-12T23:42:24.977Z,67.21
2023-03-12T23:44:55.031Z,67.15
2023-03-12T23:47:24.899Z,67.23
2023-03-12T23:49:54.814Z,67.09
2023-03-12T23:52:27.958Z,67.45
2023-03-12T23:54:57.942Z,67.55
2023-03-12T23:57:27.849Z,67.76
2023-03-12T23:59:57.825Z,67.33
